sensor_id;sensor_type;location;lat;lon;timestamp;P1;durP1;ratioP1;P2;durP2;ratioP2
4355;SDS011;64374;51.482;7.408;2023-09-19T00:02:04;6.40;;;3.00;;
4355;SDS011;64374;51.482;7.408;2023-09-19T00:04:37;6.55;;;2.63;;
4355;SDS011;64374;51.482;7.408;2023-09-19T00:07:07;8.52;;;2.90;;
4355;SDS011;64374;51.482;7.408;2023-09-19T00:09:35;7.18;;;2.75;;
4355;SDS011;64374;51.482;7.408;2023-09-19T00:12:05;8.98;;;2.90;;
4355;SDS011;64374;51.482;7.408;2023-09-19T00:14:36;7.93;;;2.70;;
4355;SDS011;64374;51.482;7.408;2023-09-19T00:17:04;6.43;;;2.75;;
4355;SDS011;64374;51.482;7.408;2023-09-19T00:19:36;7.47;;;2.80;;
4355;SDS011;64374;51.482;7.408;2023-09-19T00:22:04;9.13;;;3.30;;
4355;SDS011;64374;51.482;7.408;2023-09-19T00:24:33;6.00;;;2.90;;
4355;SDS011;64374;51.482;7.408;2023-09-19T00:27:02;6.93;;;2.80;;
4355;SDS011;64374;51.482;7.408;2023-09-19T00:29:32;5.30;;;2.75;;
4355;SDS011;64374;51.482;7.408;2023-09-19T00:32:00;7.65;;;2.60;;
4355;SDS011;64374;51.482;7.408;2023-09-19T00:34:49;9.10;;;3.20;;
4355;SDS011;64374;51.482;7.408;2023-09-19T00:37:36;7.38;;;3.40;;
4355;SDS011;64374;51.482;7.408;2023-09-19T00:40:25;12.43;;;3.60;;
4355;SDS011;64374;51.482;7.408;2023-09-19T00:43:13;7.10;;;2.70;;
4355;SDS011;64374;51.482;7.408;2023-09-19T00:46:00;8.23;;;2.40;;
4355;SDS011;64374;51.482;7.408;2023-09-19T00:48:48;11.80;;;3.80;;
4355;SDS011;64374;51.482;7.408;2023-09-19T00:51:36;9.02;;;3.13;;
4355;SDS011;64374;51.482;7.408;2023-09-19T00:54:23;12.38;;;3.10;;
4355;SDS011;64374;51.482;7.408;2023-09-19T00:57:11;10.52;;;3.10;;
4355;SDS011;64374;51.482;7.408;2023-09-19T00:59:57;9.85;;;2.85;;
4355;SDS011;64374;51.482;7.408;2023-09-19T01:02:45;8.68;;;3.30;;
4355;SDS011;64374;51.482;7.408;2023-09-19T01:05:33;9.85;;;3.00;;
4355;SDS011;64374;51.482;7.408;2023-09-19T01:08:22;8.20;;;3.00;;
4355;SDS011;64374;51.482;7.408;2023-09-19T01:11:11;10.10;;;3.17;;
4355;SDS011;64374;51.482;7.408;2023-09-19T01:14:06;9.38;;;3.22;;
4355;SDS011;64374;51.482;7.408;2023-09-19T01:17:03;8.63;;;3.17;;
4355;SDS011;64374;51.482;7.408;2023-09-19T01:20:03;10.95;;;3.33;;
4355;SDS011;64374;51.482;7.408;2023-09-19T01:23:05;12.93;;;3.60;;
4355;SDS011;64374;51.482;7.408;2023-09-19T01:29:23;8.95;;;2.90;;
4355;SDS011;64374;51.482;7.408;2023-09-19T01:32:25;10.35;;;3.00;;
4355;SDS011;64374;51.482;7.408;2023-09-19T01:35:13;10.80;;;2.92;;
4355;SDS011;64374;51.482;7.408;2023-09-19T01:38:00;9.07;;;3.13;;
4355;SDS011;64374;51.482;7.408;2023-09-19T01:40:50;10.77;;;3.40;;
4355;SDS011;64374;51.482;7.408;2023-09-19T01:43:48;13.85;;;3.50;;
4355;SDS011;64374;51.482;7.408;2023-09-19T01:46:38;11.40;;;3.60;;
4355;SDS011;64374;51.482;7.408;2023-09-19T01:49:32;10.38;;;3.33;;
4355;SDS011;64374;51.482;7.408;2023-09-19T01:52:23;8.93;;;3.15;;
4355;SDS011;64374;51.482;7.408;2023-09-19T01:55:18;8.05;;;2.88;;
4355;SDS011;64374;51.482;7.408;2023-09-19T01:58:07;9.77;;;3.47;;
4355;SDS011;64374;51.482;7.408;2023-09-19T02:01:00;11.55;;;3.38;;
4355;SDS011;64374;51.482;7.408;2023-09-19T02:03:48;13.88;;;3.50;;
4355;SDS011;64374;51.482;7.408;2023-09-19T02:06:38;11.10;;;3.00;;
4355;SDS011;64374;51.482;7.408;2023-09-19T02:09:26;7.00;;;2.85;;
4355;SDS011;64374;51.482;7.408;2023-09-19T02:12:12;15.93;;;3.40;;
4355;SDS011;64374;51.482;7.408;2023-09-19T02:15:02;11.82;;;3.70;;
4355;SDS011;64374;51.482;7.408;2023-09-19T02:17:33;10.98;;;3.20;;
4355;SDS011;64374;51.482;7.408;2023-09-19T02:20:01;11.70;;;3.20;;
4355;SDS011;64374;51.482;7.408;2023-09-19T02:22:39;8.45;;;3.40;;
4355;SDS011;64374;51.482;7.408;2023-09-19T02:25:08;7.68;;;3.00;;
4355;SDS011;64374;51.482;7.408;2023-09-19T02:27:36;10.52;;;3.15;;
4355;SDS011;64374;51.482;7.408;2023-09-19T02:30:06;14.83;;;3.60;;
4355;SDS011;64374;51.482;7.408;2023-09-19T02:32:35;9.68;;;3.38;;
4355;SDS011;64374;51.482;7.408;2023-09-19T02:35:06;15.50;;;3.40;;
4355;SDS011;64374;51.482;7.408;2023-09-19T02:37:37;10.95;;;3.30;;
4355;SDS011;64374;51.482;7.408;2023-09-19T02:40:08;6.88;;;3.00;;
4355;SDS011;64374;51.482;7.408;2023-09-19T02:42:46;9.95;;;3.15;;
4355;SDS011;64374;51.482;7.408;2023-09-19T02:45:17;8.85;;;3.20;;
4355;SDS011;64374;51.482;7.408;2023-09-19T02:47:46;12.15;;;3.50;;
4355;SDS011;64374;51.482;7.408;2023-09-19T02:50:34;11.63;;;3.10;;
4355;SDS011;64374;51.482;7.408;2023-09-19T02:53:22;12.27;;;3.22;;
4355;SDS011;64374;51.482;7.408;2023-09-19T02:56:09;13.95;;;3.70;;
4355;SDS011;64374;51.482;7.408;2023-09-19T02:58:59;14.18;;;3.15;;
4355;SDS011;64374;51.482;7.408;2023-09-19T03:01:46;11.75;;;3.45;;
4355;SDS011;64374;51.482;7.408;2023-09-19T03:04:34;14.40;;;3.30;;
4355;SDS011;64374;51.482;7.408;2023-09-19T03:07:21;14.00;;;4.00;;
4355;SDS011;64374;51.482;7.408;2023-09-19T03:10:10;11.20;;;3.40;;
4355;SDS011;64374;51.482;7.408;2023-09-19T03:12:56;14.73;;;4.20;;
4355;SDS011;64374;51.482;7.408;2023-09-19T03:15:44;11.00;;;3.40;;
4355;SDS011;64374;51.482;7.408;2023-09-19T03:18:38;9.85;;;3.60;;
4355;SDS011;64374;51.482;7.408;2023-09-19T03:21:25;10.90;;;3.45;;
4355;SDS011;64374;51.482;7.408;2023-09-19T03:24:14;11.07;;;3.40;;
4355;SDS011;64374;51.482;7.408;2023-09-19T03:27:04;12.43;;;3.30;;
4355;SDS011;64374;51.482;7.408;2023-09-19T03:29:51;10.80;;;3.50;;
4355;SDS011;64374;51.482;7.408;2023-09-19T03:32:43;10.98;;;2.97;;
4355;SDS011;64374;51.482;7.408;2023-09-19T03:35:31;14.47;;;3.73;;
4355;SDS011;64374;51.482;7.408;2023-09-19T03:38:20;16.50;;;3.60;;
4355;SDS011;64374;51.482;7.408;2023-09-19T03:41:07;10.63;;;3.33;;
4355;SDS011;64374;51.482;7.408;2023-09-19T03:43:56;9.27;;;2.95;;
4355;SDS011;64374;51.482;7.408;2023-09-19T03:46:44;14.73;;;3.50;;
4355;SDS011;64374;51.482;7.408;2023-09-19T03:49:30;10.98;;;3.42;;
4355;SDS011;64374;51.482;7.408;2023-09-19T03:52:18;8.05;;;3.33;;
4355;SDS011;64374;51.482;7.408;2023-09-19T03:55:05;11.07;;;3.17;;
4355;SDS011;64374;51.482;7.408;2023-09-19T03:57:51;12.63;;;3.35;;
4355;SDS011;64374;51.482;7.408;2023-09-19T04:00:39;11.30;;;3.92;;
4355;SDS011;64374;51.482;7.408;2023-09-19T04:03:25;8.80;;;3.55;;
4355;SDS011;64374;51.482;7.408;2023-09-19T04:06:20;10.15;;;3.15;;
4355;SDS011;64374;51.482;7.408;2023-09-19T04:09:07;8.75;;;2.97;;
4355;SDS011;64374;51.482;7.408;2023-09-19T04:11:56;10.80;;;3.10;;
4355;SDS011;64374;51.482;7.408;2023-09-19T04:14:43;15.23;;;3.80;;
4355;SDS011;64374;51.482;7.408;2023-09-19T04:17:31;10.68;;;3.13;;
4355;SDS011;64374;51.482;7.408;2023-09-19T04:20:19;7.20;;;2.70;;
4355;SDS011;64374;51.482;7.408;2023-09-19T04:23:07;11.80;;;2.92;;
4355;SDS011;64374;51.482;7.408;2023-09-19T04:25:55;11.88;;;3.08;;
4355;SDS011;64374;51.482;7.408;2023-09-19T04:28:41;6.82;;;3.00;;
4355;SDS011;64374;51.482;7.408;2023-09-19T04:31:30;9.07;;;3.20;;
4355;SDS011;64374;51.482;7.408;2023-09-19T04:34:18;13.23;;;3.75;;
4355;SDS011;64374;51.482;7.408;2023-09-19T04:37:05;13.00;;;3.70;;
4355;SDS011;64374;51.482;7.408;2023-09-19T04:39:51;13.65;;;3.22;;
4355;SDS011;64374;51.482;7.408;2023-09-19T04:42:40;9.93;;;3.30;;
4355;SDS011;64374;51.482;7.408;2023-09-19T04:45:27;9.82;;;3.22;;
4355;SDS011;64374;51.482;7.408;2023-09-19T04:48:15;9.75;;;3.70;;
4355;SDS011;64374;51.482;7.408;2023-09-19T04:51:02;9.98;;;3.40;;
4355;SDS011;64374;51.482;7.408;2023-09-19T04:53:50;10.90;;;2.80;;
4355;SDS011;64374;51.482;7.408;2023-09-19T04:56:36;10.77;;;3.38;;
4355;SDS011;64374;51.482;7.408;2023-09-19T04:59:25;10.85;;;3.70;;
4355;SDS011;64374;51.482;7.408;2023-09-19T05:02:13;11.50;;;3.75;;
4355;SDS011;64374;51.482;7.408;2023-09-19T05:05:00;15.27;;;3.75;;
4355;SDS011;64374;51.482;7.408;2023-09-19T05:07:49;11.20;;;3.77;;
4355;SDS011;64374;51.482;7.408;2023-09-19T05:10:39;10.05;;;3.60;;
4355;SDS011;64374;51.482;7.408;2023-09-19T05:13:25;12.77;;;3.80;;
4355;SDS011;64374;51.482;7.408;2023-09-19T05:16:12;12.43;;;3.47;;
4355;SDS011;64374;51.482;7.408;2023-09-19T05:18:58;12.52;;;3.50;;
4355;SDS011;64374;51.482;7.408;2023-09-19T05:21:48;11.90;;;4.03;;
4355;SDS011;64374;51.482;7.408;2023-09-19T05:24:36;10.80;;;3.30;;
4355;SDS011;64374;51.482;7.408;2023-09-19T05:27:24;11.88;;;3.42;;
4355;SDS011;64374;51.482;7.408;2023-09-19T05:30:13;13.32;;;3.30;;
4355;SDS011;64374;51.482;7.408;2023-09-19T05:33:01;15.10;;;3.87;;
4355;SDS011;64374;51.482;7.408;2023-09-19T05:35:50;9.87;;;3.50;;
4355;SDS011;64374;51.482;7.408;2023-09-19T05:38:36;9.50;;;3.60;;
4355;SDS011;64374;51.482;7.408;2023-09-19T05:41:27;13.85;;;3.65;;
4355;SDS011;64374;51.482;7.408;2023-09-19T05:44:13;13.88;;;4.03;;
4355;SDS011;64374;51.482;7.408;2023-09-19T05:47:00;11.05;;;3.65;;
4355;SDS011;64374;51.482;7.408;2023-09-19T05:49:47;13.73;;;3.50;;
4355;SDS011;64374;51.482;7.408;2023-09-19T05:52:35;12.00;;;3.83;;
4355;SDS011;64374;51.482;7.408;2023-09-19T05:55:22;15.75;;;4.07;;
4355;SDS011;64374;51.482;7.408;2023-09-19T05:58:11;10.43;;;3.40;;
4355;SDS011;64374;51.482;7.408;2023-09-19T06:00:59;15.13;;;3.50;;
4355;SDS011;64374;51.482;7.408;2023-09-19T06:03:46;12.07;;;4.15;;
4355;SDS011;64374;51.482;7.408;2023-09-19T06:06:33;11.73;;;4.10;;
4355;SDS011;64374;51.482;7.408;2023-09-19T06:09:23;18.37;;;4.00;;
4355;SDS011;64374;51.482;7.408;2023-09-19T06:12:12;14.13;;;4.07;;
4355;SDS011;64374;51.482;7.408;2023-09-19T06:15:02;13.47;;;3.90;;
4355;SDS011;64374;51.482;7.408;2023-09-19T06:17:51;11.40;;;3.85;;
4355;SDS011;64374;51.482;7.408;2023-09-19T06:20:41;11.77;;;3.60;;
4355;SDS011;64374;51.482;7.408;2023-09-19T06:23:30;11.52;;;3.85;;
4355;SDS011;64374;51.482;7.408;2023-09-19T06:26:16;13.82;;;3.70;;
4355;SDS011;64374;51.482;7.408;2023-09-19T06:29:05;10.27;;;3.30;;
4355;SDS011;64374;51.482;7.408;2023-09-19T06:31:55;12.55;;;3.63;;
4355;SDS011;64374;51.482;7.408;2023-09-19T06:34:42;12.70;;;3.80;;
4355;SDS011;64374;51.482;7.408;2023-09-19T06:37:28;14.93;;;4.65;;
4355;SDS011;64374;51.482;7.408;2023-09-19T06:40:15;12.90;;;4.25;;
4355;SDS011;64374;51.482;7.408;2023-09-19T06:43:03;16.60;;;4.40;;
4355;SDS011;64374;51.482;7.408;2023-09-19T06:45:51;13.40;;;4.00;;
4355;SDS011;64374;51.482;7.408;2023-09-19T06:48:41;10.50;;;3.80;;
4355;SDS011;64374;51.482;7.408;2023-09-19T06:51:29;13.35;;;4.28;;
4355;SDS011;64374;51.482;7.408;2023-09-19T06:54:17;10.52;;;3.60;;
4355;SDS011;64374;51.482;7.408;2023-09-19T06:57:04;14.48;;;4.00;;
4355;SDS011;64374;51.482;7.408;2023-09-19T06:59:50;13.47;;;3.80;;
4355;SDS011;64374;51.482;7.408;2023-09-19T07:02:37;16.80;;;4.35;;
4355;SDS011;64374;51.482;7.408;2023-09-19T07:05:27;9.90;;;3.70;;
4355;SDS011;64374;51.482;7.408;2023-09-19T07:08:14;11.95;;;3.53;;
4355;SDS011;64374;51.482;7.408;2023-09-19T07:11:00;12.38;;;3.90;;
4355;SDS011;64374;51.482;7.408;2023-09-19T07:13:51;12.48;;;4.20;;
4355;SDS011;64374;51.482;7.408;2023-09-19T07:16:37;14.73;;;4.07;;
4355;SDS011;64374;51.482;7.408;2023-09-19T07:19:27;11.43;;;3.33;;
4355;SDS011;64374;51.482;7.408;2023-09-19T07:22:16;10.15;;;3.80;;
4355;SDS011;64374;51.482;7.408;2023-09-19T07:25:03;16.52;;;3.67;;
4355;SDS011;64374;51.482;7.408;2023-09-19T07:27:50;12.55;;;3.95;;
4355;SDS011;64374;51.482;7.408;2023-09-19T07:30:36;14.75;;;3.55;;
4355;SDS011;64374;51.482;7.408;2023-09-19T07:33:24;16.00;;;4.13;;
4355;SDS011;64374;51.482;7.408;2023-09-19T07:36:11;18.80;;;3.70;;
4355;SDS011;64374;51.482;7.408;2023-09-19T07:39:00;12.83;;;3.90;;
4355;SDS011;64374;51.482;7.408;2023-09-19T07:42:06;16.23;;;3.65;;
4355;SDS011;64374;51.482;7.408;2023-09-19T07:44:53;12.00;;;3.65;;
4355;SDS011;64374;51.482;7.408;2023-09-19T07:47:43;13.88;;;3.85;;
4355;SDS011;64374;51.482;7.408;2023-09-19T07:50:33;15.38;;;4.55;;
4355;SDS011;64374;51.482;7.408;2023-09-19T07:53:24;12.40;;;3.78;;
4355;SDS011;64374;51.482;7.408;2023-09-19T07:56:14;10.32;;;4.40;;
4355;SDS011;64374;51.482;7.408;2023-09-19T07:59:00;12.60;;;3.90;;
4355;SDS011;64374;51.482;7.408;2023-09-19T08:01:48;17.70;;;3.78;;
4355;SDS011;64374;51.482;7.408;2023-09-19T08:04:35;11.37;;;3.70;;
4355;SDS011;64374;51.482;7.408;2023-09-19T08:07:22;15.05;;;4.50;;
4355;SDS011;64374;51.482;7.408;2023-09-19T08:10:09;14.47;;;4.33;;
4355;SDS011;64374;51.482;7.408;2023-09-19T08:12:59;13.57;;;4.60;;
4355;SDS011;64374;51.482;7.408;2023-09-19T08:15:47;11.85;;;3.88;;
4355;SDS011;64374;51.482;7.408;2023-09-19T08:18:34;14.30;;;3.88;;
4355;SDS011;64374;51.482;7.408;2023-09-19T08:21:21;11.43;;;3.90;;
4355;SDS011;64374;51.482;7.408;2023-09-19T08:24:13;13.77;;;4.63;;
4355;SDS011;64374;51.482;7.408;2023-09-19T08:27:03;16.02;;;4.00;;
4355;SDS011;64374;51.482;7.408;2023-09-19T08:29:53;13.48;;;3.95;;
4355;SDS011;64374;51.482;7.408;2023-09-19T08:32:40;13.30;;;3.67;;
4355;SDS011;64374;51.482;7.408;2023-09-19T08:35:27;12.60;;;3.77;;
4355;SDS011;64374;51.482;7.408;2023-09-19T08:38:14;11.90;;;4.28;;
4355;SDS011;64374;51.482;7.408;2023-09-19T08:41:05;18.80;;;4.90;;
4355;SDS011;64374;51.482;7.408;2023-09-19T08:43:53;15.40;;;4.18;;
4355;SDS011;64374;51.482;7.408;2023-09-19T08:46:41;19.38;;;4.13;;
4355;SDS011;64374;51.482;7.408;2023-09-19T08:49:33;13.80;;;3.97;;
4355;SDS011;64374;51.482;7.408;2023-09-19T08:52:27;13.13;;;4.10;;
4355;SDS011;64374;51.482;7.408;2023-09-19T08:55:19;11.98;;;3.38;;
4355;SDS011;64374;51.482;7.408;2023-09-19T08:58:09;13.83;;;4.00;;
4355;SDS011;64374;51.482;7.408;2023-09-19T09:00:59;10.63;;;3.45;;
4355;SDS011;64374;51.482;7.408;2023-09-19T09:03:48;12.50;;;3.65;;
4355;SDS011;64374;51.482;7.408;2023-09-19T09:06:36;14.77;;;3.90;;
4355;SDS011;64374;51.482;7.408;2023-09-19T09:09:24;14.98;;;3.45;;
4355;SDS011;64374;51.482;7.408;2023-09-19T09:12:11;13.68;;;4.30;;
4355;SDS011;64374;51.482;7.408;2023-09-19T09:15:00;13.70;;;3.65;;
4355;SDS011;64374;51.482;7.408;2023-09-19T09:17:50;8.85;;;3.70;;
4355;SDS011;64374;51.482;7.408;2023-09-19T09:20:40;9.98;;;3.70;;
4355;SDS011;64374;51.482;7.408;2023-09-19T09:23:29;11.30;;;3.60;;
4355;SDS011;64374;51.482;7.408;2023-09-19T09:26:17;9.65;;;3.65;;
4355;SDS011;64374;51.482;7.408;2023-09-19T09:29:11;11.73;;;3.60;;
4355;SDS011;64374;51.482;7.408;2023-09-19T09:32:16;10.15;;;3.05;;
4355;SDS011;64374;51.482;7.408;2023-09-19T09:35:07;11.93;;;3.70;;
4355;SDS011;64374;51.482;7.408;2023-09-19T09:38:00;8.30;;;3.20;;
4355;SDS011;64374;51.482;7.408;2023-09-19T09:40:52;10.00;;;3.40;;
4355;SDS011;64374;51.482;7.408;2023-09-19T09:43:45;10.32;;;3.97;;
4355;SDS011;64374;51.482;7.408;2023-09-19T09:46:33;10.47;;;3.30;;
4355;SDS011;64374;51.482;7.408;2023-09-19T09:49:37;10.65;;;3.78;;
4355;SDS011;64374;51.482;7.408;2023-09-19T09:52:24;17.45;;;3.90;;
4355;SDS011;64374;51.482;7.408;2023-09-19T09:55:13;13.10;;;3.30;;
4355;SDS011;64374;51.482;7.408;2023-09-19T10:01:14;10.05;;;3.22;;
4355;SDS011;64374;51.482;7.408;2023-09-19T10:04:03;11.15;;;3.70;;
4355;SDS011;64374;51.482;7.408;2023-09-19T10:06:50;11.70;;;3.72;;
4355;SDS011;64374;51.482;7.408;2023-09-19T10:09:44;8.50;;;3.30;;
4355;SDS011;64374;51.482;7.408;2023-09-19T10:12:33;9.77;;;3.55;;
4355;SDS011;64374;51.482;7.408;2023-09-19T10:15:23;8.40;;;3.00;;
4355;SDS011;64374;51.482;7.408;2023-09-19T10:18:15;9.82;;;3.20;;
4355;SDS011;64374;51.482;7.408;2023-09-19T10:21:05;12.60;;;3.42;;
4355;SDS011;64374;51.482;7.408;2023-09-19T10:23:55;11.35;;;3.80;;
4355;SDS011;64374;51.482;7.408;2023-09-19T10:26:44;13.40;;;3.72;;
4355;SDS011;64374;51.482;7.408;2023-09-19T10:29:37;14.70;;;4.60;;
4355;SDS011;64374;51.482;7.408;2023-09-19T10:32:25;11.35;;;3.70;;
4355;SDS011;64374;51.482;7.408;2023-09-19T10:35:14;12.30;;;3.80;;
4355;SDS011;64374;51.482;7.408;2023-09-19T10:38:02;11.60;;;3.50;;
4355;SDS011;64374;51.482;7.408;2023-09-19T10:40:54;9.63;;;3.60;;
4355;SDS011;64374;51.482;7.408;2023-09-19T10:43:29;10.32;;;3.70;;
4355;SDS011;64374;51.482;7.408;2023-09-19T10:46:07;8.27;;;3.60;;
4355;SDS011;64374;51.482;7.408;2023-09-19T10:48:38;10.50;;;3.85;;
4355;SDS011;64374;51.482;7.408;2023-09-19T10:51:11;8.38;;;3.50;;
4355;SDS011;64374;51.482;7.408;2023-09-19T10:53:47;11.60;;;3.40;;
4355;SDS011;64374;51.482;7.408;2023-09-19T10:56:22;11.73;;;3.60;;
4355;SDS011;64374;51.482;7.408;2023-09-19T10:59:05;12.60;;;3.50;;
4355;SDS011;64374;51.482;7.408;2023-09-19T11:01:43;9.43;;;3.28;;
4355;SDS011;64374;51.482;7.408;2023-09-19T11:04:21;10.00;;;3.20;;
4355;SDS011;64374;51.482;7.408;2023-09-19T11:07:06;12.07;;;3.17;;
4355;SDS011;64374;51.482;7.408;2023-09-19T11:09:44;13.10;;;3.00;;
4355;SDS011;64374;51.482;7.408;2023-09-19T11:24:29;9.15;;;3.17;;
4355;SDS011;64374;51.482;7.408;2023-09-19T11:27:10;7.53;;;2.70;;
4355;SDS011;64374;51.482;7.408;2023-09-19T11:29:40;11.20;;;3.40;;
4355;SDS011;64374;51.482;7.408;2023-09-19T11:32:08;9.30;;;2.90;;
4355;SDS011;64374;51.482;7.408;2023-09-19T11:34:48;9.20;;;3.40;;
4355;SDS011;64374;51.482;7.408;2023-09-19T11:40:45;11.30;;;3.40;;
4355;SDS011;64374;51.482;7.408;2023-09-19T11:43:28;6.85;;;3.35;;
4355;SDS011;64374;51.482;7.408;2023-09-19T11:46:20;8.48;;;3.67;;
4355;SDS011;64374;51.482;7.408;2023-09-19T11:49:07;8.20;;;2.78;;
4355;SDS011;64374;51.482;7.408;2023-09-19T11:51:59;11.20;;;3.20;;
4355;SDS011;64374;51.482;7.408;2023-09-19T11:54:53;8.68;;;3.03;;
4355;SDS011;64374;51.482;7.408;2023-09-19T11:57:41;7.90;;;2.97;;
4355;SDS011;64374;51.482;7.408;2023-09-19T12:00:28;11.00;;;3.70;;
4355;SDS011;64374;51.482;7.408;2023-09-19T12:03:15;7.97;;;2.60;;
4355;SDS011;64374;51.482;7.408;2023-09-19T12:06:09;7.53;;;3.03;;
4355;SDS011;64374;51.482;7.408;2023-09-19T12:08:59;7.20;;;2.90;;
4355;SDS011;64374;51.482;7.408;2023-09-19T12:11:47;8.90;;;2.70;;
4355;SDS011;64374;51.482;7.408;2023-09-19T12:14:36;8.15;;;3.40;;
4355;SDS011;64374;51.482;7.408;2023-09-19T12:17:37;7.88;;;3.08;;
4355;SDS011;64374;51.482;7.408;2023-09-19T12:20:41;9.13;;;2.70;;
4355;SDS011;64374;51.482;7.408;2023-09-19T12:23:34;9.32;;;3.00;;
4355;SDS011;64374;51.482;7.408;2023-09-19T12:26:24;8.65;;;3.35;;
4355;SDS011;64374;51.482;7.408;2023-09-19T12:29:14;9.45;;;2.90;;
4355;SDS011;64374;51.482;7.408;2023-09-19T12:32:03;8.70;;;2.73;;
4355;SDS011;64374;51.482;7.408;2023-09-19T12:34:51;6.05;;;2.80;;
4355;SDS011;64374;51.482;7.408;2023-09-19T12:37:22;10.93;;;2.80;;
4355;SDS011;64374;51.482;7.408;2023-09-19T12:40:03;7.75;;;2.75;;
4355;SDS011;64374;51.482;7.408;2023-09-19T12:42:43;9.05;;;3.03;;
4355;SDS011;64374;51.482;7.408;2023-09-19T12:45:31;6.63;;;2.83;;
4355;SDS011;64374;51.482;7.408;2023-09-19T12:48:20;8.60;;;2.78;;
4355;SDS011;64374;51.482;7.408;2023-09-19T12:51:14;6.32;;;2.80;;
4355;SDS011;64374;51.482;7.408;2023-09-19T12:54:07;6.25;;;2.50;;
4355;SDS011;64374;51.482;7.408;2023-09-19T12:56:55;9.23;;;2.60;;
4355;SDS011;64374;51.482;7.408;2023-09-19T12:59:44;6.70;;;2.80;;
4355;SDS011;64374;51.482;7.408;2023-09-19T13:02:31;10.15;;;3.13;;
4355;SDS011;64374;51.482;7.408;2023-09-19T13:05:18;5.22;;;2.60;;
4355;SDS011;64374;51.482;7.408;2023-09-19T13:08:17;6.43;;;2.65;;
4355;SDS011;64374;51.482;7.408;2023-09-19T13:11:06;8.60;;;3.10;;
4355;SDS011;64374;51.482;7.408;2023-09-19T13:14:13;7.60;;;3.00;;
4355;SDS011;64374;51.482;7.408;2023-09-19T13:17:03;8.88;;;2.72;;
4355;SDS011;64374;51.482;7.408;2023-09-19T13:20:01;6.97;;;2.75;;
4355;SDS011;64374;51.482;7.408;2023-09-19T13:22:52;4.60;;;2.50;;
4355;SDS011;64374;51.482;7.408;2023-09-19T13:25:44;10.90;;;2.95;;
4355;SDS011;64374;51.482;7.408;2023-09-19T13:28:37;7.30;;;2.47;;
4355;SDS011;64374;51.482;7.408;2023-09-19T13:31:25;8.43;;;2.60;;
4355;SDS011;64374;51.482;7.408;2023-09-19T13:34:13;6.95;;;2.70;;
4355;SDS011;64374;51.482;7.408;2023-09-19T13:37:01;4.95;;;2.47;;
4355;SDS011;64374;51.482;7.408;2023-09-19T13:39:48;5.10;;;2.50;;
4355;SDS011;64374;51.482;7.408;2023-09-19T13:42:35;5.32;;;2.50;;
4355;SDS011;64374;51.482;7.408;2023-09-19T13:45:22;5.43;;;2.10;;
4355;SDS011;64374;51.482;7.408;2023-09-19T13:48:10;5.40;;;1.90;;
4355;SDS011;64374;51.482;7.408;2023-09-19T13:50:58;5.07;;;2.38;;
4355;SDS011;64374;51.482;7.408;2023-09-19T13:53:45;5.38;;;2.28;;
4355;SDS011;64374;51.482;7.408;2023-09-19T13:56:32;6.00;;;2.20;;
4355;SDS011;64374;51.482;7.408;2023-09-19T13:59:18;4.20;;;2.30;;
4355;SDS011;64374;51.482;7.408;2023-09-19T14:02:06;5.40;;;2.00;;
4355;SDS011;64374;51.482;7.408;2023-09-19T14:04:53;7.57;;;2.47;;
4355;SDS011;64374;51.482;7.408;2023-09-19T14:07:42;4.43;;;2.20;;
4355;SDS011;64374;51.482;7.408;2023-09-19T14:10:29;2.80;;;1.80;;
4355;SDS011;64374;51.482;7.408;2023-09-19T14:13:16;6.75;;;1.90;;
4355;SDS011;64374;51.482;7.408;2023-09-19T14:16:05;4.13;;;1.70;;
4355;SDS011;64374;51.482;7.408;2023-09-19T14:18:53;6.38;;;2.00;;
4355;SDS011;64374;51.482;7.408;2023-09-19T14:21:40;4.95;;;2.20;;
4355;SDS011;64374;51.482;7.408;2023-09-19T14:24:27;5.38;;;1.77;;
4355;SDS011;64374;51.482;7.408;2023-09-19T14:27:15;4.13;;;1.70;;
4355;SDS011;64374;51.482;7.408;2023-09-19T14:30:01;3.00;;;1.85;;
4355;SDS011;64374;51.482;7.408;2023-09-19T14:32:49;5.30;;;2.00;;
4355;SDS011;64374;51.482;7.408;2023-09-19T14:35:36;5.50;;;1.90;;
4355;SDS011;64374;51.482;7.408;2023-09-19T14:38:23;5.55;;;1.70;;
4355;SDS011;64374;51.482;7.408;2023-09-19T14:41:11;4.80;;;1.63;;
4355;SDS011;64374;51.482;7.408;2023-09-19T14:43:58;5.05;;;2.08;;
4355;SDS011;64374;51.482;7.408;2023-09-19T14:46:44;7.43;;;1.80;;
4355;SDS011;64374;51.482;7.408;2023-09-19T14:49:32;5.35;;;1.70;;
4355;SDS011;64374;51.482;7.408;2023-09-19T14:52:19;3.88;;;1.95;;
4355;SDS011;64374;51.482;7.408;2023-09-19T14:55:06;4.40;;;1.60;;
4355;SDS011;64374;51.482;7.408;2023-09-19T14:58:01;5.45;;;1.75;;
4355;SDS011;64374;51.482;7.408;2023-09-19T15:00:48;3.10;;;1.30;;
4355;SDS011;64374;51.482;7.408;2023-09-19T15:03:37;5.03;;;1.90;;
4355;SDS011;64374;51.482;7.408;2023-09-19T15:06:25;4.90;;;1.70;;
4355;SDS011;64374;51.482;7.408;2023-09-19T15:09:11;8.35;;;1.88;;
4355;SDS011;64374;51.482;7.408;2023-09-19T15:11:40;4.22;;;1.58;;
4355;SDS011;64374;51.482;7.408;2023-09-19T15:14:09;3.67;;;1.70;;
4355;SDS011;64374;51.482;7.408;2023-09-19T15:16:38;2.97;;;1.50;;
4355;SDS011;64374;51.482;7.408;2023-09-19T15:19:07;6.10;;;1.37;;
4355;SDS011;64374;51.482;7.408;2023-09-19T15:21:36;4.20;;;1.60;;
4355;SDS011;64374;51.482;7.408;2023-09-19T15:24:05;3.00;;;1.80;;
4355;SDS011;64374;51.482;7.408;2023-09-19T15:26:36;3.10;;;1.50;;
4355;SDS011;64374;51.482;7.408;2023-09-19T15:29:11;4.57;;;1.55;;
4355;SDS011;64374;51.482;7.408;2023-09-19T15:31:40;3.13;;;1.40;;
4355;SDS011;64374;51.482;7.408;2023-09-19T15:34:08;4.53;;;1.80;;
4355;SDS011;64374;51.482;7.408;2023-09-19T15:36:40;2.50;;;1.40;;
4355;SDS011;64374;51.482;7.408;2023-09-19T15:39:08;4.45;;;1.67;;
4355;SDS011;64374;51.482;7.408;2023-09-19T15:41:38;4.50;;;1.90;;
4355;SDS011;64374;51.482;7.408;2023-09-19T15:44:12;3.70;;;1.90;;
4355;SDS011;64374;51.482;7.408;2023-09-19T15:46:42;4.90;;;1.50;;
4355;SDS011;64374;51.482;7.408;2023-09-19T15:49:30;3.40;;;1.45;;
4355;SDS011;64374;51.482;7.408;2023-09-19T15:52:17;4.05;;;1.30;;
4355;SDS011;64374;51.482;7.408;2023-09-19T15:55:04;3.63;;;1.60;;
4355;SDS011;64374;51.482;7.408;2023-09-19T15:57:52;4.15;;;1.73;;
4355;SDS011;64374;51.482;7.408;2023-09-19T16:00:43;3.03;;;1.80;;
4355;SDS011;64374;51.482;7.408;2023-09-19T16:03:30;4.70;;;1.58;;
4355;SDS011;64374;51.482;7.408;2023-09-19T16:06:18;4.85;;;1.67;;
4355;SDS011;64374;51.482;7.408;2023-09-19T16:09:08;4.78;;;1.77;;
4355;SDS011;64374;51.482;7.408;2023-09-19T16:11:55;3.47;;;1.50;;
4355;SDS011;64374;51.482;7.408;2023-09-19T16:14:42;2.75;;;1.30;;
4355;SDS011;64374;51.482;7.408;2023-09-19T16:17:33;4.30;;;2.00;;
4355;SDS011;64374;51.482;7.408;2023-09-19T16:20:20;3.97;;;1.50;;
4355;SDS011;64374;51.482;7.408;2023-09-19T16:23:08;5.00;;;1.50;;
4355;SDS011;64374;51.482;7.408;2023-09-19T16:26:00;6.82;;;1.80;;
4355;SDS011;64374;51.482;7.408;2023-09-19T16:28:50;2.95;;;1.48;;
4355;SDS011;64374;51.482;7.408;2023-09-19T16:31:38;3.05;;;1.52;;
4355;SDS011;64374;51.482;7.408;2023-09-19T16:34:27;4.97;;;1.60;;
4355;SDS011;64374;51.482;7.408;2023-09-19T16:37:14;4.20;;;1.60;;
4355;SDS011;64374;51.482;7.408;2023-09-19T16:40:00;3.30;;;1.50;;
4355;SDS011;64374;51.482;7.408;2023-09-19T16:42:49;6.00;;;1.70;;
4355;SDS011;64374;51.482;7.408;2023-09-19T16:45:35;4.07;;;1.48;;
4355;SDS011;64374;51.482;7.408;2023-09-19T16:48:27;4.77;;;1.70;;
4355;SDS011;64374;51.482;7.408;2023-09-19T16:51:17;3.67;;;1.55;;
4355;SDS011;64374;51.482;7.408;2023-09-19T16:54:07;3.50;;;1.52;;
4355;SDS011;64374;51.482;7.408;2023-09-19T16:56:53;5.85;;;1.70;;
4355;SDS011;64374;51.482;7.408;2023-09-19T16:59:40;6.13;;;1.50;;
4355;SDS011;64374;51.482;7.408;2023-09-19T17:02:27;5.20;;;1.40;;
4355;SDS011;64374;51.482;7.408;2023-09-19T17:05:14;4.50;;;1.60;;
4355;SDS011;64374;51.482;7.408;2023-09-19T17:08:05;2.58;;;1.50;;
4355;SDS011;64374;51.482;7.408;2023-09-19T17:10:59;3.75;;;1.63;;
4355;SDS011;64374;51.482;7.408;2023-09-19T17:13:47;3.95;;;1.50;;